sensor_id;sensor_type;location;lat;lon;timestamp;temperature;humidity
45729;DHT22;31439;53.512;10.206;2022-11-02T00:00:57;12.20;99.90
45729;DHT22;31439;53.512;10.206;2022-11-02T00:03:25;12.20;99.90
45729;DHT22;31439;53.512;10.206;2022-11-02T00:05:50;12.30;99.90
45729;DHT22;31439;53.512;10.206;2022-11-02T00:08:16;12.30;99.90
45729;DHT22;31439;53.512;10.206;2022-11-02T00:10:41;12.30;99.90
45729;DHT22;31439;53.512;10.206;2022-11-02T00:13:07;12.30;99.90
45729;DHT22;31439;53.512;10.206;2022-11-02T00:15:33;12.40;99.90
45729;DHT22;31439;53.512;10.206;2022-11-02T00:18:03;12.30;99.90
45729;DHT22;31439;53.512;10.206;2022-11-02T00:20:29;12.40;99.90
45729;DHT22;31439;53.512;10.206;2022-11-02T00:22:56;12.40;99.90
45729;DHT22;31439;53.512;10.206;2022-11-02T00:25:24;12.50;99.90
45729;DHT22;31439;53.512;10.206;2022-11-02T00:27:51;12.40;99.90
45729;DHT22;31439;53.512;10.206;2022-11-02T00:30:17;12.50;99.90
45729;DHT22;31439;53.512;10.206;2022-11-02T00:32:43;12.40;99.90
45729;DHT22;31439;53.512;10.206;2022-11-02T00:35:08;12.40;99.90
45729;DHT22;31439;53.512;10.206;2022-11-02T00:37:34;12.40;99.90
45729;DHT22;31439;53.512;10.206;2022-11-02T00:40:00;12.40;99.90
45729;DHT22;31439;53.512;10.206;2022-11-02T00:42:26;12.50;99.90
45729;DHT22;31439;53.512;10.206;2022-11-02T00:44:52;12.50;99.90
45729;DHT22;31439;53.512;10.206;2022-11-02T00:47:18;12.40;99.90
45729;DHT22;31439;53.512;10.206;2022-11-02T00:49:43;12.50;99.90
45729;DHT22;31439;53.512;10.206;2022-11-02T00:52:09;12.60;99.90
45729;DHT22;31439;53.512;10.206;2022-11-02T00:54:35;12.40;99.90
45729;DHT22;31439;53.512;10.206;2022-11-02T00:57:00;12.50;99.90
45729;DHT22;31439;53.512;10.206;2022-11-02T00:59:26;12.40;99.90
45729;DHT22;31439;53.512;10.206;2022-11-02T01:01:51;12.50;99.90
45729;DHT22;31439;53.512;10.206;2022-11-02T01:04:17;12.40;99.90
45729;DHT22;31439;53.512;10.206;2022-11-02T01:06:43;12.40;99.90
45729;DHT22;31439;53.512;10.206;2022-11-02T01:09:09;12.60;99.90
45729;DHT22;31439;53.512;10.206;2022-11-02T01:11:35;12.40;99.90
45729;DHT22;31439;53.512;10.206;2022-11-02T01:14:01;12.40;99.90
45729;DHT22;31439;53.512;10.206;2022-11-02T01:16:27;12.40;99.90
45729;DHT22;31439;53.512;10.206;2022-11-02T01:18:54;12.40;99.90
45729;DHT22;31439;53.512;10.206;2022-11-02T01:21:20;12.30;99.90
45729;DHT22;31439;53.512;10.206;2022-11-02T01:23:46;12.40;99.90
45729;DHT22;31439;53.512;10.206;2022-11-02T01:26:12;12.40;99.90
45729;DHT22;31439;53.512;10.206;2022-11-02T01:28:38;12.40;99.90
45729;DHT22;31439;53.512;10.206;2022-11-02T01:31:04;12.40;99.90
45729;DHT22;31439;53.512;10.206;2022-11-02T01:33:31;12.30;99.90
45729;DHT22;31439;53.512;10.206;2022-11-02T01:35:57;12.30;99.90
45729;DHT22;31439;53.512;10.206;2022-11-02T01:38:23;12.30;99.90
45729;DHT22;31439;53.512;10.206;2022-11-02T01:40:48;12.40;99.90
45729;DHT22;31439;53.512;10.206;2022-11-02T01:45:43;12.30;99.90
45729;DHT22;31439;53.512;10.206;2022-11-02T01:48:09;12.40;99.90
45729;DHT22;31439;53.512;10.206;2022-11-02T01:50:35;12.40;99.90
45729;DHT22;31439;53.512;10.206;2022-11-02T01:53:00;12.20;99.90
45729;DHT22;31439;53.512;10.206;2022-11-02T01:55:29;12.30;99.90
45729;DHT22;31439;53.512;10.206;2022-11-02T01:58:06;12.30;99.90
45729;DHT22;31439;53.512;10.206;2022-11-02T02:00:34;12.30;99.90
45729;DHT22;31439;53.512;10.206;2022-11-02T02:03:11;12.40;99.90
45729;DHT22;31439;53.512;10.206;2022-11-02T02:06:27;12.30;99.90
45729;DHT22;31439;53.512;10.206;2022-11-02T02:08:28;12.30;99.90
45729;DHT22;31439;53.512;10.206;2022-11-02T02:10:56;12.20;99.90
45729;DHT22;31439;53.512;10.206;2022-11-02T02:13:21;12.20;99.90
45729;DHT22;31439;53.512;10.206;2022-11-02T02:16:11;12.10;99.90
45729;DHT22;31439;53.512;10.206;2022-11-02T02:18:53;12.10;99.90
45729;DHT22;31439;53.512;10.206;2022-11-02T02:24:43;12.30;99.90
45729;DHT22;31439;53.512;10.206;2022-11-02T02:27:14;12.10;99.90
45729;DHT22;31439;53.512;10.206;2022-11-02T02:29:50;12.10;99.90
45729;DHT22;31439;53.512;10.206;2022-11-02T02:34:59;12.00;99.90
45729;DHT22;31439;53.512;10.206;2022-11-02T02:37:35;11.90;99.90
45729;DHT22;31439;53.512;10.206;2022-11-02T02:40:15;11.90;99.90
45729;DHT22;31439;53.512;10.206;2022-11-02T02:42:54;11.90;99.90
45729;DHT22;31439;53.512;10.206;2022-11-02T02:45:35;11.90;99.90
45729;DHT22;31439;53.512;10.206;2022-11-02T02:48:08;11.90;99.90
45729;DHT22;31439;53.512;10.206;2022-11-02T02:50:40;11.90;99.90
45729;DHT22;31439;53.512;10.206;2022-11-02T02:53:10;12.20;99.90
45729;DHT22;31439;53.512;10.206;2022-11-02T02:55:42;11.90;99.90
45729;DHT22;31439;53.512;10.206;2022-11-02T02:58:13;11.90;99.90
45729;DHT22;31439;53.512;10.206;2022-11-02T03:00:40;12.10;99.90
45729;DHT22;31439;53.512;10.206;2022-11-02T03:03:06;11.90;99.90
45729;DHT22;31439;53.512;10.206;2022-11-02T03:05:36;11.90;99.90
45729;DHT22;31439;53.512;10.206;2022-11-02T03:08:06;11.90;99.90
45729;DHT22;31439;53.512;10.206;2022-11-02T03:10:47;11.90;99.90
45729;DHT22;31439;53.512;10.206;2022-11-02T03:16:03;11.80;99.90
45729;DHT22;31439;53.512;10.206;2022-11-02T03:21:41;11.80;99.90
45729;DHT22;31439;53.512;10.206;2022-11-02T03:24:18;11.90;99.90
45729;DHT22;31439;53.512;10.206;2022-11-02T03:26:54;11.90;99.90
45729;DHT22;31439;53.512;10.206;2022-11-02T03:35:42;12.00;99.90
45729;DHT22;31439;53.512;10.206;2022-11-02T03:38:13;12.30;99.90
45729;DHT22;31439;53.512;10.206;2022-11-02T03:40:46;12.00;99.90
45729;DHT22;31439;53.512;10.206;2022-11-02T03:43:14;12.00;99.90
45729;DHT22;31439;53.512;10.206;2022-11-02T03:45:50;12.00;99.90
45729;DHT22;31439;53.512;10.206;2022-11-02T03:48:17;12.00;99.90
45729;DHT22;31439;53.512;10.206;2022-11-02T03:50:46;12.10;99.90
45729;DHT22;31439;53.512;10.206;2022-11-02T03:53:40;12.10;99.90
45729;DHT22;31439;53.512;10.206;2022-11-02T03:56:10;12.00;99.90
45729;DHT22;31439;53.512;10.206;2022-11-02T03:58:37;12.00;99.90
45729;DHT22;31439;53.512;10.206;2022-11-02T04:01:04;12.20;99.90
45729;DHT22;31439;53.512;10.206;2022-11-02T04:03:33;12.00;99.90
45729;DHT22;31439;53.512;10.206;2022-11-02T04:06:00;12.00;99.90
45729;DHT22;31439;53.512;10.206;2022-11-02T04:08:38;12.00;99.90
45729;DHT22;31439;53.512;10.206;2022-11-02T04:11:04;12.00;99.90
45729;DHT22;31439;53.512;10.206;2022-11-02T04:14:03;12.00;99.90
45729;DHT22;31439;53.512;10.206;2022-11-02T04:16:47;12.10;99.90
45729;DHT22;31439;53.512;10.206;2022-11-02T04:19:12;12.10;99.90
45729;DHT22;31439;53.512;10.206;2022-11-02T04:21:54;12.10;99.90
45729;DHT22;31439;53.512;10.206;2022-11-02T04:24:39;12.10;99.90
45729;DHT22;31439;53.512;10.206;2022-11-02T04:27:23;12.00;99.90
45729;DHT22;31439;53.512;10.206;2022-11-02T04:29:48;12.00;99.90
45729;DHT22;31439;53.512;10.206;2022-11-02T04:32:14;12.10;99.90
45729;DHT22;31439;53.512;10.206;2022-11-02T04:35:00;12.10;99.90
45729;DHT22;31439;53.512;10.206;2022-11-02T04:37:26;12.10;99.90
45729;DHT22;31439;53.512;10.206;2022-11-02T04:40:10;12.10;99.90
45729;DHT22;31439;53.512;10.206;2022-11-02T04:42:36;12.10;99.90
45729;DHT22;31439;53.512;10.206;2022-11-02T04:45:02;12.10;99.90
45729;DHT22;31439;53.512;10.206;2022-11-02T04:47:27;12.10;99.90
45729;DHT22;31439;53.512;10.206;2022-11-02T04:49:53;12.10;99.90
45729;DHT22;31439;53.512;10.206;2022-11-02T04:52:18;12.10;99.90
45729;DHT22;31439;53.512;10.206;2022-11-02T04:54:44;12.00;99.90
45729;DHT22;31439;53.512;10.206;2022-11-02T04:57:09;12.20;99.90
45729;DHT22;31439;53.512;10.206;2022-11-02T04:59:35;12.00;99.90
45729;DHT22;31439;53.512;10.206;2022-11-02T05:02:00;12.00;99.90
45729;DHT22;31439;53.512;10.206;2022-11-02T05:04:26;12.20;99.90
45729;DHT22;31439;53.512;10.206;2022-11-02T05:06:52;11.90;99.90
45729;DHT22;31439;53.512;10.206;2022-11-02T05:09:17;12.10;99.90
45729;DHT22;31439;53.512;10.206;2022-11-02T05:11:43;11.90;99.90
45729;DHT22;31439;53.512;10.206;2022-11-02T05:14:08;12.10;99.90
45729;DHT22;31439;53.512;10.206;2022-11-02T05:16:34;12.00;99.90
45729;DHT22;31439;53.512;10.206;2022-11-02T05:18:59;12.00;99.90
45729;DHT22;31439;53.512;10.206;2022-11-02T05:21:25;12.00;99.90
45729;DHT22;31439;53.512;10.206;2022-11-02T05:23:50;11.90;99.90
45729;DHT22;31439;53.512;10.206;2022-11-02T05:26:16;11.80;99.90
45729;DHT22;31439;53.512;10.206;2022-11-02T05:28:42;11.90;99.90
45729;DHT22;31439;53.512;10.206;2022-11-02T05:31:07;11.90;99.90
45729;DHT22;31439;53.512;10.206;2022-11-02T05:33:33;11.90;99.90
45729;DHT22;31439;53.512;10.206;2022-11-02T05:36:00;11.90;99.90
45729;DHT22;31439;53.512;10.206;2022-11-02T05:38:26;11.90;99.90
45729;DHT22;31439;53.512;10.206;2022-11-02T05:40:57;12.00;99.90
45729;DHT22;31439;53.512;10.206;2022-11-02T05:43:23;11.90;99.90
45729;DHT22;31439;53.512;10.206;2022-11-02T05:45:53;11.90;99.90
45729;DHT22;31439;53.512;10.206;2022-11-02T05:48:20;12.00;99.90
45729;DHT22;31439;53.512;10.206;2022-11-02T05:50:46;11.90;99.90
45729;DHT22;31439;53.512;10.206;2022-11-02T05:53:11;11.90;99.90
45729;DHT22;31439;53.512;10.206;2022-11-02T05:55:37;12.00;99.90
45729;DHT22;31439;53.512;10.206;2022-11-02T05:58:02;11.90;99.90
45729;DHT22;31439;53.512;10.206;2022-11-02T06:00:28;12.00;99.90
45729;DHT22;31439;53.512;10.206;2022-11-02T06:02:57;11.90;99.90
45729;DHT22;31439;53.512;10.206;2022-11-02T06:05:24;12.10;99.90
45729;DHT22;31439;53.512;10.206;2022-11-02T06:07:50;11.90;99.90
45729;DHT22;31439;53.512;10.206;2022-11-02T06:10:16;11.80;99.90
45729;DHT22;31439;53.512;10.206;2022-11-02T06:12:42;11.90;99.90
45729;DHT22;31439;53.512;10.206;2022-11-02T06:15:09;11.90;99.90
45729;DHT22;31439;53.512;10.206;2022-11-02T06:17:40;11.80;99.90
45729;DHT22;31439;53.512;10.206;2022-11-02T06:20:07;11.80;99.90
45729;DHT22;31439;53.512;10.206;2022-11-02T06:22:39;11.80;99.90
45729;DHT22;31439;53.512;10.206;2022-11-02T06:25:06;11.70;99.90
45729;DHT22;31439;53.512;10.206;2022-11-02T06:27:32;11.80;99.90
45729;DHT22;31439;53.512;10.206;2022-11-02T06:29:58;11.80;99.90
45729;DHT22;31439;53.512;10.206;2022-11-02T06:32:24;11.80;99.90
45729;DHT22;31439;53.512;10.206;2022-11-02T06:34:49;11.80;99.90
45729;DHT22;31439;53.512;10.206;2022-11-02T06:37:15;11.90;99.90
45729;DHT22;31439;53.512;10.206;2022-11-02T06:39:40;11.90;99.90
45729;DHT22;31439;53.512;10.206;2022-11-02T06:42:06;11.80;99.90
45729;DHT22;31439;53.512;10.206;2022-11-02T06:44:31;12.00;99.90
45729;DHT22;31439;53.512;10.206;2022-11-02T06:46:57;11.90;99.90
45729;DHT22;31439;53.512;10.206;2022-11-02T06:49:23;11.90;99.90
45729;DHT22;31439;53.512;10.206;2022-11-02T06:51:52;11.90;99.90
45729;DHT22;31439;53.512;10.206;2022-11-02T06:54:17;12.00;99.90
45729;DHT22;31439;53.512;10.206;2022-11-02T06:56:43;12.00;99.90
45729;DHT22;31439;53.512;10.206;2022-11-02T06:59:09;12.00;99.90
45729;DHT22;31439;53.512;10.206;2022-11-02T07:01:34;12.10;99.90
45729;DHT22;31439;53.512;10.206;2022-11-02T07:04:01;12.10;99.90
45729;DHT22;31439;53.512;10.206;2022-11-02T07:06:27;12.10;99.90
45729;DHT22;31439;53.512;10.206;2022-11-02T07:08:53;12.10;99.90
45729;DHT22;31439;53.512;10.206;2022-11-02T07:11:19;12.10;99.90
45729;DHT22;31439;53.512;10.206;2022-11-02T07:13:44;12.10;99.90
45729;DHT22;31439;53.512;10.206;2022-11-02T07:16:10;12.20;99.90
45729;DHT22;31439;53.512;10.206;2022-11-02T07:18:36;12.20;99.90
45729;DHT22;31439;53.512;10.206;2022-11-02T07:21:02;12.20;99.90
45729;DHT22;31439;53.512;10.206;2022-11-02T07:23:28;12.30;99.90
45729;DHT22;31439;53.512;10.206;2022-11-02T07:25:54;12.30;99.90
45729;DHT22;31439;53.512;10.206;2022-11-02T07:28:19;12.40;99.90
45729;DHT22;31439;53.512;10.206;2022-11-02T07:30:45;12.30;99.90
45729;DHT22;31439;53.512;10.206;2022-11-02T07:33:11;12.30;99.90
45729;DHT22;31439;53.512;10.206;2022-11-02T07:35:37;12.40;99.90
45729;DHT22;31439;53.512;10.206;2022-11-02T07:38:04;12.40;99.90
45729;DHT22;31439;53.512;10.206;2022-11-02T07:40:31;12.40;99.90
45729;DHT22;31439;53.512;10.206;2022-11-02T07:42:58;12.50;99.90
45729;DHT22;31439;53.512;10.206;2022-11-02T07:45:24;12.60;99.90
45729;DHT22;31439;53.512;10.206;2022-11-02T07:47:50;12.40;99.90
45729;DHT22;31439;53.512;10.206;2022-11-02T07:50:21;12.80;99.90
45729;DHT22;31439;53.512;10.206;2022-11-02T07:52:50;12.50;99.90
45729;DHT22;31439;53.512;10.206;2022-11-02T07:55:18;12.70;99.90
45729;DHT22;31439;53.512;10.206;2022-11-02T07:57:55;12.60;99.90
45729;DHT22;31439;53.512;10.206;2022-11-02T08:00:21;12.70;99.90
45729;DHT22;31439;53.512;10.206;2022-11-02T08:02:47;12.80;99.90
45729;DHT22;31439;53.512;10.206;2022-11-02T08:05:12;12.70;99.90
45729;DHT22;31439;53.512;10.206;2022-11-02T08:07:38;12.60;99.90
45729;DHT22;31439;53.512;10.206;2022-11-02T08:10:04;12.60;99.90
45729;DHT22;31439;53.512;10.206;2022-11-02T08:12:29;12.70;99.90
45729;DHT22;31439;53.512;10.206;2022-11-02T08:14:55;12.70;99.90
45729;DHT22;31439;53.512;10.206;2022-11-02T08:17:22;12.80;99.90
45729;DHT22;31439;53.512;10.206;2022-11-02T08:19:48;12.80;99.90
45729;DHT22;31439;53.512;10.206;2022-11-02T08:22:14;12.90;99.90
45729;DHT22;31439;53.512;10.206;2022-11-02T08:24:39;13.00;99.90
45729;DHT22;31439;53.512;10.206;2022-11-02T08:27:05;12.90;99.90
45729;DHT22;31439;53.512;10.206;2022-11-02T08:29:31;13.00;99.90
45729;DHT22;31439;53.512;10.206;2022-11-02T08:31:57;13.00;99.90
45729;DHT22;31439;53.512;10.206;2022-11-02T08:34:22;13.00;99.90
45729;DHT22;31439;53.512;10.206;2022-11-02T08:36:48;13.10;99.90
45729;DHT22;31439;53.512;10.206;2022-11-02T08:39:13;13.10;99.90
45729;DHT22;31439;53.512;10.206;2022-11-02T08:41:39;13.10;99.90
45729;DHT22;31439;53.512;10.206;2022-11-02T08:44:04;13.10;99.90
45729;DHT22;31439;53.512;10.206;2022-11-02T08:46:30;13.30;99.90
45729;DHT22;31439;53.512;10.206;2022-11-02T08:48:55;13.10;99.90
45729;DHT22;31439;53.512;10.206;2022-11-02T08:51:21;13.10;99.90
45729;DHT22;31439;53.512;10.206;2022-11-02T08:53:46;13.30;99.90
45729;DHT22;31439;53.512;10.206;2022-11-02T08:56:12;13.30;99.90
45729;DHT22;31439;53.512;10.206;2022-11-02T08:58:37;13.30;99.90
45729;DHT22;31439;53.512;10.206;2022-11-02T09:01:03;13.30;99.90
45729;DHT22;31439;53.512;10.206;2022-11-02T09:03:29;13.30;99.90
45729;DHT22;31439;53.512;10.206;2022-11-02T09:05:59;13.40;99.90
45729;DHT22;31439;53.512;10.206;2022-11-02T09:08:24;13.40;99.90
45729;DHT22;31439;53.512;10.206;2022-11-02T09:10:51;13.40;99.90
45729;DHT22;31439;53.512;10.206;2022-11-02T09:13:18;13.50;99.90
45729;DHT22;31439;53.512;10.206;2022-11-02T09:15:51;13.50;99.90
45729;DHT22;31439;53.512;10.206;2022-11-02T09:18:17;13.50;99.90
45729;DHT22;31439;53.512;10.206;2022-11-02T09:20:43;13.60;99.90
45729;DHT22;31439;53.512;10.206;2022-11-02T09:23:28;13.40;99.90
45729;DHT22;31439;53.512;10.206;2022-11-02T09:25:54;13.50;99.90
45729;DHT22;31439;53.512;10.206;2022-11-02T09:28:20;13.50;99.90
45729;DHT22;31439;53.512;10.206;2022-11-02T09:30:46;13.50;99.90
45729;DHT22;31439;53.512;10.206;2022-11-02T09:33:11;13.50;99.90
45729;DHT22;31439;53.512;10.206;2022-11-02T09:35:46;13.60;99.90
45729;DHT22;31439;53.512;10.206;2022-11-02T09:38:12;13.50;99.90
45729;DHT22;31439;53.512;10.206;2022-11-02T09:40:40;13.50;99.90
45729;DHT22;31439;53.512;10.206;2022-11-02T09:45:35;13.50;99.90
45729;DHT22;31439;53.512;10.206;2022-11-02T09:48:09;13.50;99.90
45729;DHT22;31439;53.512;10.206;2022-11-02T09:51:00;13.40;99.90
45729;DHT22;31439;53.512;10.206;2022-11-02T09:54:29;13.50;99.90
45729;DHT22;31439;53.512;10.206;2022-11-02T09:56:35;13.50;99.90
45729;DHT22;31439;53.512;10.206;2022-11-02T09:59:12;13.70;99.90
45729;DHT22;31439;53.512;10.206;2022-11-02T10:10:22;13.80;99.90
45729;DHT22;31439;53.512;10.206;2022-11-02T10:18:15;13.70;99.90
45729;DHT22;31439;53.512;10.206;2022-11-02T10:20:44;13.60;99.90
45729;DHT22;31439;53.512;10.206;2022-11-02T10:23:24;13.60;99.90
45729;DHT22;31439;53.512;10.206;2022-11-02T10:25:53;13.50;99.90
45729;DHT22;31439;53.512;10.206;2022-11-02T10:28:23;13.50;99.90
45729;DHT22;31439;53.512;10.206;2022-11-02T10:30:52;13.40;99.90
45729;DHT22;31439;53.512;10.206;2022-11-02T10:33:23;13.50;99.90
45729;DHT22;31439;53.512;10.206;2022-11-02T10:44:15;12.80;99.90
45729;DHT22;31439;53.512;10.206;2022-11-02T10:47:08;12.80;99.90
45729;DHT22;31439;53.512;10.206;2022-11-02T10:52:34;12.60;99.90
45729;DHT22;31439;53.512;10.206;2022-11-02T10:55:04;12.70;99.90
45729;DHT22;31439;53.512;10.206;2022-11-02T10:57:36;12.70;99.90
45729;DHT22;31439;53.512;10.206;2022-11-02T11:00:29;12.60;99.90
45729;DHT22;31439;53.512;10.206;2022-11-02T11:03:05;12.70;99.90
45729;DHT22;31439;53.512;10.206;2022-11-02T11:05:32;12.90;99.90
45729;DHT22;31439;53.512;10.206;2022-11-02T11:07:59;13.00;99.90
45729;DHT22;31439;53.512;10.206;2022-11-02T11:10:25;13.20;99.90
45729;DHT22;31439;53.512;10.206;2022-11-02T11:12:53;13.30;99.90
45729;DHT22;31439;53.512;10.206;2022-11-02T11:15:26;13.50;99.90
45729;DHT22;31439;53.512;10.206;2022-11-02T11:17:54;13.60;99.90
45729;DHT22;31439;53.512;10.206;2022-11-02T11:23:23;13.60;99.90
45729;DHT22;31439;53.512;10.206;2022-11-02T11:25:55;13.60;99.90
45729;DHT22;31439;53.512;10.206;2022-11-02T11:28:24;13.60;99.90
45729;DHT22;31439;53.512;10.206;2022-11-02T11:31:06;13.70;99.90
45729;DHT22;31439;53.512;10.206;2022-11-02T11:36:27;13.90;99.90
45729;DHT22;31439;53.512;10.206;2022-11-02T11:39:06;14.20;99.90
45729;DHT22;31439;53.512;10.206;2022-11-02T11:41:41;14.20;99.90
45729;DHT22;31439;53.512;10.206;2022-11-02T11:44:11;14.10;99.90
45729;DHT22;31439;53.512;10.206;2022-11-02T11:46:51;13.90;99.90
45729;DHT22;31439;53.512;10.206;2022-11-02T11:49:30;13.80;99.90
45729;DHT22;31439;53.512;10.206;2022-11-02T11:51:57;13.80;99.90
45729;DHT22;31439;53.512;10.206;2022-11-02T11:54:28;13.70;99.90
45729;DHT22;31439;53.512;10.206;2022-11-02T11:57:15;13.70;99.90
45729;DHT22;31439;53.512;10.206;2022-11-02T11:59:48;13.70;99.90
45729;DHT22;31439;53.512;10.206;2022-11-02T12:05:13;13.60;99.90
45729;DHT22;31439;53.512;10.206;2022-11-02T12:07:48;13.60;99.90
45729;DHT22;31439;53.512;10.206;2022-11-02T12:16:07;13.30;99.90
45729;DHT22;31439;53.512;10.206;2022-11-02T12:32:57;12.40;99.90
45729;DHT22;31439;53.512;10.206;2022-11-02T12:35:31;12.10;99.90
45729;DHT22;31439;53.512;10.206;2022-11-02T12:43:41;11.70;99.90
45729;DHT22;31439;53.512;10.206;2022-11-02T12:46:41;11.70;99.90
45729;DHT22;31439;53.512;10.206;2022-11-02T12:54:47;12.20;99.90
45729;DHT22;31439;53.512;10.206;2022-11-02T12:57:19;12.60;99.90
45729;DHT22;31439;53.512;10.206;2022-11-02T12:59:49;12.90;99.90
45729;DHT22;31439;53.512;10.206;2022-11-02T13:02:31;13.40;99.90
45729;DHT22;31439;53.512;10.206;2022-11-02T13:05:07;13.90;99.90
45729;DHT22;31439;53.512;10.206;2022-11-02T13:07:41;14.30;99.90
45729;DHT22;31439;53.512;10.206;2022-11-02T13:10:20;14.40;99.90
45729;DHT22;31439;53.512;10.206;2022-11-02T13:12:49;14.60;99.90
45729;DHT22;31439;53.512;10.206;2022-11-02T13:15:18;14.70;99.90
45729;DHT22;31439;53.512;10.206;2022-11-02T13:17:55;14.50;99.90
45729;DHT22;31439;53.512;10.206;2022-11-02T13:20:34;14.20;99.90
45729;DHT22;31439;53.512;10.206;2022-11-02T13:25:51;13.60;99.90
45729;DHT22;31439;53.512;10.206;2022-11-02T13:31:02;13.20;99.90
45729;DHT22;31439;53.512;10.206;2022-11-02T13:33:52;13.20;99.90
45729;DHT22;31439;53.512;10.206;2022-11-02T13:36:18;13.10;99.90
45729;DHT22;31439;53.512;10.206;2022-11-02T13:38:49;12.80;99.90
45729;DHT22;31439;53.512;10.206;2022-11-02T13:47:02;12.20;99.90
45729;DHT22;31439;53.512;10.206;2022-11-02T13:49:42;12.30;99.90
45729;DHT22;31439;53.512;10.206;2022-11-02T13:52:25;12.20;99.90
45729;DHT22;31439;53.512;10.206;2022-11-02T13:55:00;12.20;99.90
45729;DHT22;31439;53.512;10.206;2022-11-02T13:57:39;12.30;99.90
45729;DHT22;31439;53.512;10.206;2022-11-02T14:00:29;12.60;99.90
45729;DHT22;31439;53.512;10.206;2022-11-02T14:03:15;12.30;99.90
45729;DHT22;31439;53.512;10.206;2022-11-02T14:05:57;12.30;99.90
45729;DHT22;31439;53.512;10.206;2022-11-02T14:08:51;12.40;99.90
45729;DHT22;31439;53.512;10.206;2022-11-02T14:27:05;12.80;99.90
45729;DHT22;31439;53.512;10.206;2022-11-02T14:29:51;12.90;99.90
45729;DHT22;31439;53.512;10.206;2022-11-02T14:32:21;12.80;99.90
45729;DHT22;31439;53.512;10.206;2022-11-02T14:49:00;12.50;99.90
45729;DHT22;31439;53.512;10.206;2022-11-02T14:51:32;12.50;99.90
45729;DHT22;31439;53.512;10.206;2022-11-02T14:54:06;12.50;99.90
45729;DHT22;31439;53.512;10.206;2022-11-02T14:56:49;12.50;99.90
45729;DHT22;31439;53.512;10.206;2022-11-02T14:59:24;12.60;99.90
45729;DHT22;31439;53.512;10.206;2022-11-02T15:01:56;12.60;99.90
45729;DHT22;31439;53.512;10.206;2022-11-02T15:04:24;12.60;99.90
45729;DHT22;31439;53.512;10.206;2022-11-02T15:06:55;12.50;99.90
45729;DHT22;31439;53.512;10.206;2022-11-02T15:09:52;12.50;99.90
45729;DHT22;31439;53.512;10.206;2022-11-02T15:12:34;12.50;99.90
45729;DHT22;31439;53.512;10.206;2022-11-02T15:15:23;12.50;99.90
45729;DHT22;31439;53.512;10.206;2022-11-02T15:17:50;12.40;99.90
45729;DHT22;31439;53.512;10.206;2022-11-02T15:20:26;12.40;99.90
45729;DHT22;31439;53.512;10.206;2022-11-02T15:23:13;12.40;99.90
45729;DHT22;31439;53.512;10.206;2022-11-02T15:25:41;12.40;99.90
45729;DHT22;31439;53.512;10.206;2022-11-02T15:28:16;12.40;99.90
45729;DHT22;31439;53.512;10.206;2022-11-02T15:30:51;12.40;99.90
45729;DHT22;31439;53.512;10.206;2022-11-02T15:33:40;12.40;99.90
45729;DHT22;31439;53.512;10.206;2022-11-02T15:36:17;12.50;99.90
45729;DHT22;31439;53.512;10.206;2022-11-02T15:38:48;12.30;99.90
45729;DHT22;31439;53.512;10.206;2022-11-02T15:41:38;12.30;99.90
45729;DHT22;31439;53.512;10.206;2022-11-02T16:00:22;11.80;99.90
45729;DHT22;31439;53.512;10.206;2022-11-02T16:02:59;11.80;99.90
45729;DHT22;31439;53.512;10.206;2022-11-02T16:05:28;11.90;99.90
45729;DHT22;31439;53.512;10.206;2022-11-02T16:07:56;11.80;99.90
45729;DHT22;31439;53.512;10.206;2022-11-02T16:10:23;11.80;99.90
45729;DHT22;31439;53.512;10.206;2022-11-02T16:15:34;11.60;99.90
45729;DHT22;31439;53.512;10.206;2022-11-02T16:18:00;11.60;99.90
45729;DHT22;31439;53.512;10.206;2022-11-02T16:20:28;11.70;99.90
45729;DHT22;31439;53.512;10.206;2022-11-02T16:23:04;11.60;99.90
45729;DHT22;31439;53.512;10.206;2022-11-02T16:25:31;11.50;99.90
45729;DHT22;31439;53.512;10.206;2022-11-02T16:28:26;11.50;99.90
45729;DHT22;31439;53.512;10.206;2022-11-02T16:33:36;11.50;99.90
45729;DHT22;31439;53.512;10.206;2022-11-02T16:36:03;11.50;99.90
45729;DHT22;31439;53.512;10.206;2022-11-02T16:38:29;11.50;99.90
45729;DHT22;31439;53.512;10.206;2022-11-02T16:40:55;11.40;99.90
45729;DHT22;31439;53.512;10.206;2022-11-02T16:43:23;11.50;99.90
45729;DHT22;31439;53.512;10.206;2022-11-02T16:45:50;11.40;99.90
45729;DHT22;31439;53.512;10.206;2022-11-02T16:48:27;11.60;99.90
45729;DHT22;31439;53.512;10.206;2022-11-02T16:53:37;11.30;99.90
45729;DHT22;31439;53.512;10.206;2022-11-02T16:58:38;11.40;99.90
45729;DHT22;31439;53.512;10.206;2022-11-02T17:01:20;11.30;99.90
45729;DHT22;31439;53.512;10.206;2022-11-02T17:03:46;11.30;99.90
45729;DHT22;31439;53.512;10.206;2022-11-02T17:06:14;11.30;99.90
45729;DHT22;31439;53.512;10.206;2022-11-02T17:08:41;11.20;99.90
45729;DHT22;31439;53.512;10.206;2022-11-02T17:11:15;11.20;99.90
45729;DHT22;31439;53.512;10.206;2022-11-02T17:13:59;11.40;99.90
45729;DHT22;31439;53.512;10.206;2022-11-02T17:16:25;11.20;99.90
45729;DHT22;31439;53.512;10.206;2022-11-02T17:18:50;11.10;99.90
45729;DHT22;31439;53.512;10.206;2022-11-02T17:21:27;11.10;99.90
45729;DHT22;31439;53.512;10.206;2022-11-02T17:23:55;11.00;99.90
45729;DHT22;31439;53.512;10.206;2022-11-02T17:28:57;11.00;99.90
45729;DHT22;31439;53.512;10.206;2022-11-02T17:31:27;10.90;99.90
45729;DHT22;31439;53.512;10.206;2022-11-02T17:33:53;11.30;99.90
45729;DHT22;31439;53.512;10.206;2022-11-02T17:36:21;11.00;99.90
45729;DHT22;31439;53.512;10.206;2022-11-02T17:38:49;11.10;99.90
45729;DHT22;31439;53.512;10.206;2022-11-02T17:41:16;11.00;99.90
45729;DHT22;31439;53.512;10.206;2022-11-02T17:44:02;11.10;99.90
45729;DHT22;31439;53.512;10.206;2022-11-02T17:46:28;11.00;99.90
45729;DHT22;31439;53.512;10.206;2022-11-02T17:48:54;10.90;99.90
45729;DHT22;31439;53.512;10.206;2022-11-02T17:51:21;10.90;99.90
45729;DHT22;31439;53.512;10.206;2022-11-02T17:53:50;11.00;99.90
45729;DHT22;31439;53.512;10.206;2022-11-02T17:56:16;10.90;99.90
45729;DHT22;31439;53.512;10.206;2022-11-02T17:58:41;10.90;99.90
45729;DHT22;31439;53.512;10.206;2022-11-02T18:01:10;11.10;99.90
45729;DHT22;31439;53.512;10.206;2022-11-02T18:03:36;10.80;99.90
45729;DHT22;31439;53.512;10.206;2022-11-02T18:06:02;10.80;99.90
45729;DHT22;31439;53.512;10.206;2022-11-02T18:08:28;10.80;99.90
45729;DHT22;31439;53.512;10.206;2022-11-02T18:10:53;10.80;99.90
45729;DHT22;31439;53.512;10.206;2022-11-02T18:13:21;10.70;99.90